Time;durP1;ratioP1;P1;durP2;ratioP2;P2;SDS_P1;SDS_P2;PMS_P1;PMS_P2;Temp;Humidity;BMP_temperature;BMP_pressure;BME280_temperature;BME280_humidity;BME280_pressure;Samples;Min_cycle;Max_cycle;Signal;HPM_P1;HPM_P2
2023/11/14 00:01:26;;;;;;;;;;;;;;;9.14;63.55;99752.66;5094554;28;19916;-76
2023/11/14 00:03:52;;;;;;;;;;;;;;;9.19;63.36;99754.78;5089607;28;19920;-77
2023/11/14 00:06:17;;;;;;;;;;;;;;;9.21;63.46;99758.91;5074120;28;20057;-75
2023/11/14 00:08:42;;;;;;;;;;;;;;;9.21;63.26;99763.34;5074239;28;19912;-76
2023/11/14 00:11:10;;;;;;;;;;;;;;;9.20;63.50;99756.44;5089639;28;20386;-76
2023/11/14 00:13:35;;;;;;;;;;;;;;;9.21;63.20;99764.19;5074119;28;19919;-76
2023/11/14 00:16:01;;;;;;;;;;;;;;;9.22;63.26;99760.56;5073852;28;19912;-76
2023/11/14 00:18:26;;;;;;;;;;;;;;;9.20;62.86;99759.06;5073770;28;20003;-76
2023/11/14 00:20:54;;;;;;;;;;;;;;;9.22;63.52;99754.47;5073933;28;19961;-76
2023/11/14 00:23:20;;;;;;;;;;;;;;;9.24;63.15;99760.38;5073961;28;19916;-76
2023/11/14 00:25:45;;;;;;;;;;;;;;;9.24;63.34;99760.38;5072786;28;19962;-77
2023/11/14 00:28:10;;;;;;;;;;;;;;;9.27;63.11;99765.34;5074021;28;19919;-76
2023/11/14 00:30:37;;;;;;;;;;;;;;;9.29;62.99;99765.16;5073879;28;19919;-76
2023/11/14 00:33:03;;;;;;;;;;;;;;;9.28;62.77;99766.97;5073931;28;19934;-76
2023/11/14 00:35:28;;;;;;;;;;;;;;;9.29;62.88;99763.34;5073913;28;19912;-75
2023/11/14 00:37:54;;;;;;;;;;;;;;;9.27;62.72;99767.97;5073830;28;20443;-76
2023/11/14 00:40:19;;;;;;;;;;;;;;;9.24;62.50;99763.84;5073702;28;19995;-75
2023/11/14 00:42:45;;;;;;;;;;;;;;;9.26;62.66;99765.50;5073801;28;19913;-76
2023/11/14 00:45:10;;;;;;;;;;;;;;;9.19;62.83;99757.44;5073594;28;19924;-76
2023/11/14 00:47:36;;;;;;;;;;;;;;;9.12;62.91;99749.34;5073560;28;19913;-76
2023/11/14 00:50:02;;;;;;;;;;;;;;;9.05;63.36;99744.91;5073540;28;19913;-75
2023/11/14 00:52:27;;;;;;;;;;;;;;;9.06;63.45;99743.91;5073221;28;19948;-76
2023/11/14 00:54:52;;;;;;;;;;;;;;;9.01;63.31;99736.50;5088822;28;19913;-77
2023/11/14 00:57:18;;;;;;;;;;;;;;;8.99;63.20;99737.66;5073292;28;19916;-75
2023/11/14 00:59:44;;;;;;;;;;;;;;;8.99;63.29;99745.56;5073306;28;19912;-76
2023/11/14 01:02:09;;;;;;;;;;;;;;;8.99;63.54;99751.66;5073103;28;19918;-76
2023/11/14 01:04:38;;;;;;;;;;;;;;;8.97;63.30;99758.88;5091153;28;19924;-76
2023/11/14 01:07:05;;;;;;;;;;;;;;;9.00;63.18;99760.38;5093334;28;19916;-76
2023/11/14 01:09:30;;;;;;;;;;;;;;;8.99;62.74;99745.56;5093349;28;20367;-77
2023/11/14 01:11:56;;;;;;;;;;;;;;;9.00;63.07;99749.84;5093159;28;19912;-76
2023/11/14 01:14:21;;;;;;;;;;;;;;;8.97;62.98;99737.00;5093222;28;19919;-77
2023/11/14 01:16:46;;;;;;;;;;;;;;;8.89;63.05;99738.59;5093010;28;19923;-75
2023/11/14 01:19:12;;;;;;;;;;;;;;;8.91;62.96;99738.44;5093021;28;20374;-76
2023/11/14 01:21:37;;;;;;;;;;;;;;;8.87;63.12;99751.09;5092953;28;20282;-76
2023/11/14 01:24:02;;;;;;;;;;;;;;;8.80;62.56;99747.47;5092893;28;20442;-76
2023/11/14 01:26:31;;;;;;;;;;;;;;;8.73;63.03;99743.00;5092979;28;19912;-77
2023/11/14 01:28:57;;;;;;;;;;;;;;;8.69;62.95;99752.22;5092932;28;19912;-77
2023/11/14 01:31:22;;;;;;;;;;;;;;;8.68;62.74;99745.31;5092939;28;19912;-76
2023/11/14 01:33:47;;;;;;;;;;;;;;;8.67;62.99;99739.22;5092868;28;19919;-76
2023/11/14 01:36:13;;;;;;;;;;;;;;;8.70;62.65;99733.63;5092158;28;19916;-76
2023/11/14 01:38:38;;;;;;;;;;;;;;;8.75;62.84;99741.03;5092565;28;19912;-76
2023/11/14 01:41:03;;;;;;;;;;;;;;;8.75;62.85;99747.13;5092452;28;19916;-76
2023/11/14 01:43:28;;;;;;;;;;;;;;;8.75;62.17;99747.13;5092466;28;19922;-76
2023/11/14 01:45:55;;;;;;;;;;;;;;;8.76;62.52;99747.97;5074362;28;19919;-75
2023/11/14 01:48:20;;;;;;;;;;;;;;;8.78;62.15;99740.72;5074167;28;19916;-75
2023/11/14 01:50:45;;;;;;;;;;;;;;;8.77;62.64;99739.06;5091083;28;19919;-75
2023/11/14 01:53:11;;;;;;;;;;;;;;;8.77;62.24;99736.44;5092307;28;19916;-75
2023/11/14 01:55:37;;;;;;;;;;;;;;;8.72;62.12;99744.81;5092180;28;19912;-77
2023/11/14 01:58:02;;;;;;;;;;;;;;;8.71;62.61;99748.44;5092064;28;19923;-76
2023/11/14 02:00:28;;;;;;;;;;;;;;;8.72;62.52;99747.44;5092257;28;19943;-76
2023/11/14 02:02:53;;;;;;;;;;;;;;;8.74;62.46;99747.28;5092279;28;20297;-76
2023/11/14 02:05:19;;;;;;;;;;;;;;;8.76;62.39;99743.50;5092635;28;19946;-76
2023/11/14 02:07:44;;;;;;;;;;;;;;;8.73;61.93;99748.28;5092092;28;19916;-75
2023/11/14 02:10:10;;;;;;;;;;;;;;;8.70;61.97;99749.44;5092257;28;20297;-76
2023/11/14 02:12:35;;;;;;;;;;;;;;;8.69;62.24;99750.41;5091994;28;19989;-76
2023/11/14 02:15:04;;;;;;;;;;;;;;;8.69;62.56;99737.25;5074086;28;19918;-76
2023/11/14 02:17:29;;;;;;;;;;;;;;;8.69;62.18;99739.06;5092642;28;19975;-77
2023/11/14 02:19:54;;;;;;;;;;;;;;;8.71;62.24;99735.28;5092012;28;19919;-75
2023/11/14 02:22:20;;;;;;;;;;;;;;;8.67;62.17;99728.69;5092016;28;20392;-75
2023/11/14 02:24:48;;;;;;;;;;;;;;;8.63;62.36;99724.72;5091916;28;20062;-76
2023/11/14 02:27:13;;;;;;;;;;;;;;;8.54;62.84;99721.25;5091980;28;19912;-76
2023/11/14 02:29:39;;;;;;;;;;;;;;;8.55;62.44;99712.38;5091974;28;19912;-76
2023/11/14 02:32:04;;;;;;;;;;;;;;;8.54;63.01;99704.66;5091960;28;19942;-76
2023/11/14 02:34:29;;;;;;;;;;;;;;;8.58;62.96;99703.34;5091974;28;20332;-76
2023/11/14 02:36:54;;;;;;;;;;;;;;;8.64;62.95;99702.69;5091520;28;19916;-76
2023/11/14 02:39:20;;;;;;;;;;;;;;;8.64;63.38;99705.31;5091627;28;19924;-75
2023/11/14 02:41:45;;;;;;;;;;;;;;;8.65;63.27;99701.72;5091460;28;19985;-75
2023/11/14 02:44:10;;;;;;;;;;;;;;;8.62;63.71;99702.03;5090397;28;19969;-76
2023/11/14 02:46:37;;;;;;;;;;;;;;;8.59;63.63;99708.44;5091705;28;20405;-75
2023/11/14 02:49:23;;;;;;;;;;;;;;;8.60;63.61;99712.72;5093267;28;19912;-76
2023/11/14 02:51:48;;;;;;;;;;;;;;;8.62;63.65;99717.81;5085411;28;19916;-77
2023/11/14 02:54:13;;;;;;;;;;;;;;;8.68;63.09;99713.72;5096019;28;20380;-75
2023/11/14 02:56:38;;;;;;;;;;;;;;;8.71;63.22;99705.50;5095812;28;20396;-75
2023/11/14 02:59:04;;;;;;;;;;;;;;;8.71;63.30;99714.22;5095838;28;20012;-76
2023/11/14 03:01:29;;;;;;;;;;;;;;;8.73;63.21;99717.50;5094435;28;20381;-76
2023/11/14 03:03:54;;;;;;;;;;;;;;;8.75;63.27;99718.19;5095466;28;19920;-77
2023/11/14 03:06:20;;;;;;;;;;;;;;;8.75;62.92;99710.28;5094280;28;19915;-76
2023/11/14 03:08:45;;;;;;;;;;;;;;;8.74;63.00;99720.97;5095823;28;20373;-76
2023/11/14 03:11:10;;;;;;;;;;;;;;;8.76;63.01;99714.56;5095478;28;19957;-76
2023/11/14 03:13:36;;;;;;;;;;;;;;;8.78;63.12;99701.22;5095910;28;19916;-76
2023/11/14 03:16:02;;;;;;;;;;;;;;;8.74;63.26;99698.09;5095509;28;19962;-76
2023/11/14 03:18:27;;;;;;;;;;;;;;;8.72;63.29;99692.19;5077190;28;20320;-76
2023/11/14 03:20:53;;;;;;;;;;;;;;;8.72;63.21;99702.72;5095450;28;19916;-76
2023/11/14 03:23:18;;;;;;;;;;;;;;;8.74;63.21;99702.53;5095215;28;19951;-76
2023/11/14 03:25:43;;;;;;;;;;;;;;;8.70;63.08;99690.69;5095187;28;19913;-75
2023/11/14 03:28:08;;;;;;;;;;;;;;;8.70;63.18;99690.69;5095054;28;19911;-76
2023/11/14 03:30:34;;;;;;;;;;;;;;;8.68;63.16;99690.84;5095102;28;19912;-76
2023/11/14 03:32:59;;;;;;;;;;;;;;;8.66;62.78;99690.19;5095401;28;19919;-76
2023/11/14 03:35:25;;;;;;;;;;;;;;;8.60;62.73;99699.56;5095109;28;19954;-76
2023/11/14 03:37:50;;;;;;;;;;;;;;;8.56;62.42;99711.41;5094905;28;19916;-76
2023/11/14 03:40:15;;;;;;;;;;;;;;;8.52;62.34;99711.88;5076754;28;19962;-76
2023/11/14 03:42:41;;;;;;;;;;;;;;;8.47;61.99;99711.53;5094976;28;19916;-75
2023/11/14 03:45:06;;;;;;;;;;;;;;;8.41;62.28;99717.44;5094877;28;19915;-76
2023/11/14 03:47:32;;;;;;;;;;;;;;;8.32;62.26;99716.56;5094726;28;19912;-75
2023/11/14 03:49:57;;;;;;;;;;;;;;;8.25;62.17;99723.44;5094777;28;19954;-77
2023/11/14 03:52:22;;;;;;;;;;;;;;;8.22;62.40;99729.00;5093558;28;20007;-77
2023/11/14 03:54:48;;;;;;;;;;;;;;;8.22;62.46;99740.34;5094670;28;19951;-76
2023/11/14 03:57:13;;;;;;;;;;;;;;;8.17;62.02;99737.34;5094307;28;19916;-76
2023/11/14 03:59:38;;;;;;;;;;;;;;;8.22;62.47;99742.16;5094317;28;19962;-76
2023/11/14 04:02:03;;;;;;;;;;;;;;;8.27;62.42;99740.72;5094282;28;20367;-76
2023/11/14 04:04:29;;;;;;;;;;;;;;;8.23;61.67;99743.81;5094326;28;20381;-76
2023/11/14 04:06:55;;;;;;;;;;;;;;;8.17;61.88;99749.66;5094516;28;20440;-76
2023/11/14 04:09:22;;;;;;;;;;;;;;;8.13;61.96;99753.59;5094020;28;20312;-76
2023/11/14 04:11:48;;;;;;;;;;;;;;;8.12;62.31;99746.69;5094423;28;19912;-76
2023/11/14 04:14:14;;;;;;;;;;;;;;;8.08;62.20;99754.06;5094471;28;19913;-76
2023/11/14 04:16:39;;;;;;;;;;;;;;;8.10;62.26;99757.38;5094099;28;19923;-76
2023/11/14 04:19:05;;;;;;;;;;;;;;;8.11;62.28;99753.75;5094362;28;19918;-77
2023/11/14 04:21:30;;;;;;;;;;;;;;;8.14;62.55;99750.00;5094291;28;19969;-77
2023/11/14 04:23:55;;;;;;;;;;;;;;;8.11;62.44;99753.75;5094146;28;20457;-76
2023/11/14 04:26:22;;;;;;;;;;;;;;;8.09;62.30;99750.47;5094115;28;20464;-76
2023/11/14 04:28:47;;;;;;;;;;;;;;;8.09;62.40;99744.38;5094062;28;19912;-77
2023/11/14 04:31:12;;;;;;;;;;;;;;;8.14;62.83;99750.81;5094132;28;19912;-76
2023/11/14 04:33:37;;;;;;;;;;;;;;;8.16;62.19;99756.75;5094190;28;19965;-76
2023/11/14 04:36:03;;;;;;;;;;;;;;;8.11;61.77;99763.44;5093727;28;19912;-76
2023/11/14 04:38:28;;;;;;;;;;;;;;;8.09;62.46;99755.72;5093918;28;19920;-76
2023/11/14 04:40:53;;;;;;;;;;;;;;;8.10;62.38;99754.75;5093843;28;19912;-77
2023/11/14 04:43:19;;;;;;;;;;;;;;;8.13;62.22;99761.50;5093635;28;19919;-76
2023/11/14 04:45:44;;;;;;;;;;;;;;;8.15;62.11;99757.72;5092267;28;19916;-76
2023/11/14 04:48:13;;;;;;;;;;;;;;;8.16;61.97;99759.38;5093492;28;20366;-76
2023/11/14 04:50:38;;;;;;;;;;;;;;;8.19;62.15;99766.16;5093671;28;19969;-77
2023/11/14 04:53:03;;;;;;;;;;;;;;;8.21;61.80;99766.81;5075473;28;19912;-77
2023/11/14 04:55:29;;;;;;;;;;;;;;;8.20;62.36;99770.44;5092140;28;19912;-76
2023/11/14 04:57:54;;;;;;;;;;;;;;;8.18;61.90;99767.13;5093394;28;19953;-76
2023/11/14 05:00:19;;;;;;;;;;;;;;;8.18;62.21;99773.22;5093427;28;19912;-76
2023/11/14 05:02:44;;;;;;;;;;;;;;;8.14;61.47;99769.22;5092038;28;19974;-76
2023/11/14 05:05:10;;;;;;;;;;;;;;;8.09;61.62;99766.25;5093489;28;19973;-77
2023/11/14 05:07:35;;;;;;;;;;;;;;;8.04;61.51;99771.16;5075150;28;19912;-76
2023/11/14 05:10:00;;;;;;;;;;;;;;;8.04;61.48;99773.78;5093393;28;20064;-77
2023/11/14 05:12:26;;;;;;;;;;;;;;;8.02;61.40;99773.09;5091444;28;19969;-76
2023/11/14 05:14:51;;;;;;;;;;;;;;;7.97;61.55;99765.69;5092296;28;19918;-76
2023/11/14 05:17:16;;;;;;;;;;;;;;;7.92;61.63;99773.22;5093092;28;20400;-75
2023/11/14 05:19:44;;;;;;;;;;;;;;;7.84;60.77;99761.81;5075008;28;20003;-76
2023/11/14 05:22:10;;;;;;;;;;;;;;;7.76;61.09;99761.78;5093147;28;19912;-76
2023/11/14 05:24:35;;;;;;;;;;;;;;;7.71;61.52;99753.53;5093155;28;20412;-74
2023/11/14 05:27:00;;;;;;;;;;;;;;;7.68;61.12;99756.47;5093085;28;19998;-77
2023/11/14 05:29:26;;;;;;;;;;;;;;;7.72;62.10;99753.38;5092971;28;19955;-76
2023/11/14 05:31:51;;;;;;;;;;;;;;;7.69;61.87;99750.22;5093060;28;19959;-76
2023/11/14 05:34:16;;;;;;;;;;;;;;;7.70;61.47;99760.59;5093105;28;20292;-76
2023/11/14 05:36:41;;;;;;;;;;;;;;;7.73;61.34;99769.97;5091307;28;19973;-76
2023/11/14 05:39:07;;;;;;;;;;;;;;;7.68;61.35;99770.44;5092709;28;19916;-76
2023/11/14 05:41:33;;;;;;;;;;;;;;;7.63;61.35;99778.78;5092668;28;20423;-76
2023/11/14 05:43:59;;;;;;;;;;;;;;;7.54;61.17;99773.63;5092784;28;20377;-76
2023/11/14 05:46:24;;;;;;;;;;;;;;;7.47;62.02;99776.03;5092479;28;19919;-76
2023/11/14 05:48:50;;;;;;;;;;;;;;;7.47;61.84;99788.34;5092654;28;19913;-76
2023/11/14 05:51:16;;;;;;;;;;;;;;;7.56;62.29;99790.06;5092510;28;20536;-77
2023/11/14 05:53:44;;;;;;;;;;;;;;;7.54;61.57;99790.22;5092580;28;19912;-76
2023/11/14 05:56:10;;;;;;;;;;;;;;;7.59;62.01;99780.06;5092659;28;20333;-76
2023/11/14 05:58:35;;;;;;;;;;;;;;;7.66;61.43;99769.75;5092191;28;19966;-76
2023/11/14 06:01:01;;;;;;;;;;;;;;;7.72;61.98;99773.56;5073965;28;20384;-76
2023/11/14 06:03:27;;;;;;;;;;;;;;;7.79;61.57;99769.34;5076724;28;19921;-76
2023/11/14 06:05:53;;;;;;;;;;;;;;;7.84;61.61;99773.16;5071811;28;19995;-76
2023/11/14 06:08:18;;;;;;;;;;;;;;;7.85;61.32;99777.44;5071640;28;20421;-76
2023/11/14 06:10:43;;;;;;;;;;;;;;;7.86;61.76;99779.09;5071878;28;20404;-75
2023/11/14 06:13:08;;;;;;;;;;;;;;;7.85;61.46;99774.00;5078388;28;19915;-76
2023/11/14 06:15:34;;;;;;;;;;;;;;;7.79;61.33;99780.69;5089581;28;20010;-76
2023/11/14 06:17:59;;;;;;;;;;;;;;;7.77;62.03;99780.03;5091229;28;19927;-76
2023/11/14 06:20:24;;;;;;;;;;;;;;;7.74;61.67;99782.13;5077908;28;20004;-76
2023/11/14 06:22:50;;;;;;;;;;;;;;;7.82;62.08;99788.25;5078881;28;19955;-75
2023/11/14 06:25:15;;;;;;;;;;;;;;;7.83;61.83;99779.41;5077304;28;19912;-75
2023/11/14 06:27:41;;;;;;;;;;;;;;;7.83;62.37;99779.41;5071742;28;19916;-77
2023/11/14 06:30:06;;;;;;;;;;;;;;;7.91;61.91;99783.88;5059138;28;19916;-77
2023/11/14 06:32:33;;;;;;;;;;;;;;;7.95;62.21;99787.84;5090108;28;19916;-77
2023/11/14 06:34:59;;;;;;;;;;;;;;;7.92;61.96;99785.53;5091734;28;19919;-77
2023/11/14 06:37:24;;;;;;;;;;;;;;;7.98;61.91;99780.47;5080751;28;19920;-77
2023/11/14 06:39:49;;;;;;;;;;;;;;;8.05;61.94;99785.13;5071586;28;19919;-75
2023/11/14 06:42:14;;;;;;;;;;;;;;;8.12;61.99;99791.41;5071625;28;19912;-77
2023/11/14 06:44:43;;;;;;;;;;;;;;;8.13;61.95;99785.16;5070382;28;20324;-77
2023/11/14 06:47:08;;;;;;;;;;;;;;;8.15;62.11;99780.56;5071290;28;19959;-77
2023/11/14 06:49:34;;;;;;;;;;;;;;;8.22;61.85;99784.25;5061367;28;20419;-76
2023/11/14 06:51:59;;;;;;;;;;;;;;;8.31;61.92;99785.94;5091389;28;20523;-77
2023/11/14 06:54:25;;;;;;;;;;;;;;;8.39;61.83;99790.44;5091132;28;19916;-75
2023/11/14 06:56:50;;;;;;;;;;;;;;;8.47;61.96;99791.28;5076524;28;19943;-75
2023/11/14 06:59:15;;;;;;;;;;;;;;;8.54;61.92;99792.31;5071265;28;20061;-76
2023/11/14 07:01:41;;;;;;;;;;;;;;;8.59;62.23;99802.38;5072833;28;19968;-76
2023/11/14 07:04:06;;;;;;;;;;;;;;;8.68;61.99;99796.16;5071230;28;20420;-77
2023/11/14 07:06:33;;;;;;;;;;;;;;;8.76;61.84;99797.97;5071155;28;19912;-76
2023/11/14 07:08:59;;;;;;;;;;;;;;;8.83;61.64;99805.06;5070703;28;19912;-77
2023/11/14 07:11:25;;;;;;;;;;;;;;;8.93;61.56;99793.59;5071223;28;19919;-77
2023/11/14 07:13:51;;;;;;;;;;;;;;;9.01;61.41;99789.19;5071203;28;20416;-77
2023/11/14 07:16:16;;;;;;;;;;;;;;;9.07;61.38;99787.72;5071162;28;19912;-76
2023/11/14 07:18:41;;;;;;;;;;;;;;;9.06;61.38;99786.88;5086301;28;19916;-77
2023/11/14 07:21:06;;;;;;;;;;;;;;;9.08;61.69;99794.63;5091511;28;19912;-77
2023/11/14 07:23:32;;;;;;;;;;;;;;;9.19;61.05;99792.50;5091294;28;20454;-76
2023/11/14 07:25:57;;;;;;;;;;;;;;;9.31;60.97;99802.72;5091015;28;19977;-77
2023/11/14 07:28:23;;;;;;;;;;;;;;;9.42;61.03;99794.50;5079522;28;19917;-77
2023/11/14 07:30:48;;;;;;;;;;;;;;;9.48;60.63;99796.47;5074165;28;19938;-77
2023/11/14 07:33:16;;;;;;;;;;;;;;;9.58;60.52;99789.22;5091006;28;19908;-75
2023/11/14 07:35:41;;;;;;;;;;;;;;;9.69;60.23;99791.53;5093555;28;20294;-77
2023/11/14 07:38:07;;;;;;;;;;;;;;;9.80;60.79;99796.47;5094430;28;19942;-76
2023/11/14 07:40:32;;;;;;;;;;;;;;;9.87;60.61;99786.91;5077305;28;19916;-77
2023/11/14 07:43:00;;;;;;;;;;;;;;;9.96;60.72;99794.81;5074527;28;19912;-77
2023/11/14 07:45:25;;;;;;;;;;;;;;;10.04;60.33;99792.16;5081464;28;19920;-76
2023/11/14 07:47:51;;;;;;;;;;;;;;;10.15;60.25;99799.69;5094043;28;19913;-78
2023/11/14 07:50:16;;;;;;;;;;;;;;;10.25;60.13;99799.53;5092167;28;19916;-77
2023/11/14 07:52:42;;;;;;;;;;;;;;;10.31;60.22;99788.31;5091978;28;19916;-77
2023/11/14 07:55:10;;;;;;;;;;;;;;;10.36;60.36;99785.97;5087196;28;19973;-77
2023/11/14 07:57:36;;;;;;;;;;;;;;;10.44;60.42;99772.78;5091635;28;19920;-77
2023/11/14 08:00:01;;;;;;;;;;;;;;;10.53;60.17;99770.94;5091741;28;19912;-77
2023/11/14 08:02:26;;;;;;;;;;;;;;;10.61;60.21;99774.34;5072605;28;20396;-77
2023/11/14 08:04:52;;;;;;;;;;;;;;;10.70;59.83;99773.31;5071995;28;19917;-78
2023/11/14 08:07:20;;;;;;;;;;;;;;;10.78;59.90;99772.44;5072111;28;20380;-76
2023/11/14 08:09:45;;;;;;;;;;;;;;;10.89;59.34;99774.69;5073056;28;19927;-78
2023/11/14 08:12:11;;;;;;;;;;;;;;;10.91;59.88;99769.22;5071787;28;19912;-77
2023/11/14 08:14:37;;;;;;;;;;;;;;;10.99;59.38;99766.53;5053736;28;19917;-77
2023/11/14 08:17:03;;;;;;;;;;;;;;;11.07;58.71;99763.84;5073916;28;20041;-75
2023/11/14 08:19:28;;;;;;;;;;;;;;;11.14;59.24;99764.78;5072595;28;19916;-77
2023/11/14 08:21:53;;;;;;;;;;;;;;;11.23;59.40;99766.41;5068782;28;20313;-77
2023/11/14 08:24:19;;;;;;;;;;;;;;;11.26;58.93;99773.16;5094079;28;19962;-78
2023/11/14 08:26:45;;;;;;;;;;;;;;;11.31;59.12;99781.38;5094051;28;19995;-76
2023/11/14 08:29:10;;;;;;;;;;;;;;;11.36;58.83;99782.47;5075589;28;19912;-76
2023/11/14 08:31:35;;;;;;;;;;;;;;;11.46;58.07;99787.53;5075293;28;19922;-77
2023/11/14 08:34:00;;;;;;;;;;;;;;;11.58;57.97;99785.28;5093870;28;19916;-77
2023/11/14 08:36:26;;;;;;;;;;;;;;;11.64;57.49;99779.28;5075566;28;19916;-78
2023/11/14 08:38:51;;;;;;;;;;;;;;;11.71;57.19;99785.50;5093835;28;19912;-77
2023/11/14 08:41:16;;;;;;;;;;;;;;;11.80;57.11;99773.03;5092528;28;19966;-77
2023/11/14 08:43:42;;;;;;;;;;;;;;;11.90;56.96;99757.75;5073449;28;20019;-77
2023/11/14 08:46:07;;;;;;;;;;;;;;;12.00;56.21;99755.66;5075017;28;20003;-78
2023/11/14 08:48:33;;;;;;;;;;;;;;;12.02;56.77;99738.59;5075791;28;19912;-78
2023/11/14 08:50:58;;;;;;;;;;;;;;;12.10;57.01;99737.69;5093876;28;19904;-77
2023/11/14 08:53:23;;;;;;;;;;;;;;;12.18;57.48;99728.84;5075459;28;19912;-78
2023/11/14 08:55:49;;;;;;;;;;;;;;;12.24;57.13;99722.81;5093326;28;19996;-77
2023/11/14 08:58:14;;;;;;;;;;;;;;;12.32;56.92;99709.47;5093090;28;19974;-77
2023/11/14 09:00:39;;;;;;;;;;;;;;;12.38;56.91;99712.19;5074662;28;20289;-77
2023/11/14 09:03:05;;;;;;;;;;;;;;;12.46;56.39;99707.78;5082589;28;19921;-77
2023/11/14 09:05:30;;;;;;;;;;;;;;;12.53;56.41;99706.88;5073155;28;20000;-77
2023/11/14 09:07:55;;;;;;;;;;;;;;;12.59;56.11;99698.16;5072866;28;19995;-78
2023/11/14 09:10:22;;;;;;;;;;;;;;;12.66;55.74;99695.63;5073069;28;20420;-77
2023/11/14 09:12:48;;;;;;;;;;;;;;;12.73;55.79;99694.69;5072827;28;19912;-78
2023/11/14 09:15:14;;;;;;;;;;;;;;;12.83;55.63;99697.03;5072582;28;19919;-78
2023/11/14 09:17:40;;;;;;;;;;;;;;;12.91;55.30;99696.06;5072828;28;20324;-77
2023/11/14 09:20:05;;;;;;;;;;;;;;;12.94;55.07;99693.88;5071563;28;19913;-78
2023/11/14 09:22:31;;;;;;;;;;;;;;;13.03;55.50;99699.88;5072890;28;19995;-78
2023/11/14 09:24:56;;;;;;;;;;;;;;;13.12;54.88;99693.41;5074243;28;19916;-77
2023/11/14 09:27:22;;;;;;;;;;;;;;;13.20;54.79;99690.66;5072579;28;20421;-78
2023/11/14 09:29:48;;;;;;;;;;;;;;;13.26;53.30;99692.53;5073021;28;19935;-78
2023/11/14 09:32:13;;;;;;;;;;;;;;;13.30;53.28;99699.09;5072752;28;20383;-78
2023/11/14 09:34:38;;;;;;;;;;;;;;;13.38;53.72;99698.19;5072144;28;20011;-78
2023/11/14 09:37:04;;;;;;;;;;;;;;;13.46;53.72;99687.44;5072195;28;19916;-78
2023/11/14 09:39:30;;;;;;;;;;;;;;;13.56;53.15;99697.69;5072464;28;19982;-77
2023/11/14 09:41:56;;;;;;;;;;;;;;;13.64;52.90;99697.53;5091300;28;19920;-76
2023/11/14 09:44:22;;;;;;;;;;;;;;;13.64;52.92;99695.72;5092630;28;19912;-77
2023/11/14 09:46:49;;;;;;;;;;;;;;;13.75;53.05;99683.75;5074285;28;19912;-78
2023/11/14 09:49:14;;;;;;;;;;;;;;;13.86;52.93;99683.19;5090619;28;19973;-77
2023/11/14 09:51:40;;;;;;;;;;;;;;;13.91;52.15;99667.50;5073656;28;19999;-78
2023/11/14 09:54:06;;;;;;;;;;;;;;;14.01;52.52;99661.81;5070628;28;20385;-77
2023/11/14 09:56:31;;;;;;;;;;;;;;;14.08;52.28;99651.22;5070619;28;20050;-77
2023/11/14 09:58:58;;;;;;;;;;;;;;;14.14;52.41;99645.97;5054019;28;19912;-77
2023/11/14 10:01:23;;;;;;;;;;;;;;;14.21;52.91;99633.53;5071844;28;19924;-78
2023/11/14 10:03:49;;;;;;;;;;;;;;;14.27;52.40;99619.47;5071945;28;19920;-77
2023/11/14 10:06:14;;;;;;;;;;;;;;;14.34;52.08;99618.66;5072033;28;19919;-78
2023/11/14 10:08:40;;;;;;;;;;;;;;;14.40;52.25;99605.41;5054589;28;19951;-77
2023/11/14 10:11:08;;;;;;;;;;;;;;;14.43;52.29;99598.91;5092127;28;20388;-77
2023/11/14 10:13:33;;;;;;;;;;;;;;;14.48;51.96;99594.63;5091966;28;19916;-77
2023/11/14 10:16:22;;;;;;;;;;;;;;;14.52;51.85;99592.38;5076649;28;19913;-78
2023/11/14 10:18:48;;;;;;;;;;;;;;;14.55;51.61;99581.34;5045994;28;19921;-78
2023/11/14 10:21:30;;;;;;;;;;;;;;;14.56;51.95;99572.34;5053946;28;20294;-77
2023/11/14 10:23:56;;;;;;;;;;;;;;;14.63;51.92;99581.16;5071475;28;19916;-76
2023/11/14 10:26:22;;;;;;;;;;;;;;;14.67;52.17;99584.22;5053630;28;20439;-75
2023/11/14 10:28:54;;;;;;;;;;;;;;;14.70;52.02;99575.84;5075573;28;19916;-76
2023/11/14 10:31:41;;;;;;;;;;;;;;;14.75;51.53;99576.03;5084367;28;19998;-77
2023/11/14 10:34:08;;;;;;;;;;;;;;;14.77;50.58;99558.88;5072546;28;19916;-78
2023/11/14 10:36:46;;;;;;;;;;;;;;;14.83;52.07;99562.53;5071488;28;19917;-78
2023/11/14 10:39:11;;;;;;;;;;;;;;;14.86;52.24;99554.16;5071639;28;19917;-76
2023/11/14 10:41:37;;;;;;;;;;;;;;;14.90;52.17;99540.28;5053643;28;19913;-77
2023/11/14 10:44:09;;;;;;;;;;;;;;;14.95;52.29;99539.66;5070229;28;19912;-76
2023/11/14 10:46:35;;;;;;;;;;;;;;;15.01;52.75;99530.88;5071358;28;19913;-77
2023/11/14 10:49:03;;;;;;;;;;;;;;;15.07;52.56;99527.38;5053614;28;19916;-76
2023/11/14 10:51:30;;;;;;;;;;;;;;;15.12;52.62;99527.56;5053459;28;19944;-77
2023/11/14 10:53:57;;;;;;;;;;;;;;;15.15;52.48;99534.31;5080032;28;19965;-77
2023/11/14 10:56:23;;;;;;;;;;;;;;;15.15;51.89;99534.31;5091342;28;19916;-77
2023/11/14 10:58:49;;;;;;;;;;;;;;;15.15;51.97;99537.78;5091782;28;19987;-77
2023/11/14 11:01:14;;;;;;;;;;;;;;;15.15;51.88;99535.13;5084184;28;19913;-76
2023/11/14 11:03:40;;;;;;;;;;;;;;;15.17;52.33;99538.41;5071026;28;20062;-76
2023/11/14 11:06:05;;;;;;;;;;;;;;;15.19;52.64;99544.34;5069820;28;19917;-77
2023/11/14 11:08:31;;;;;;;;;;;;;;;15.21;52.35;99546.78;5071046;28;20519;-78
2023/11/14 11:10:56;;;;;;;;;;;;;;;15.19;51.77;99551.50;5072754;28;19920;-77
2023/11/14 11:13:23;;;;;;;;;;;;;;;15.18;52.63;99542.69;5076150;28;20475;-76
2023/11/14 11:15:49;;;;;;;;;;;;;;;15.18;52.60;99541.88;5075070;28;19908;-77
2023/11/14 11:18:17;;;;;;;;;;;;;;;15.17;52.74;99540.25;5075072;28;19955;-76
2023/11/14 11:20:43;;;;;;;;;;;;;;;15.14;52.45;99530.84;5076052;28;19928;-77
2023/11/14 11:23:08;;;;;;;;;;;;;;;15.14;52.98;99514.88;5073712;28;19912;-76
2023/11/14 11:25:37;;;;;;;;;;;;;;;15.17;53.05;99509.16;5073639;28;19912;-76
2023/11/14 11:28:21;;;;;;;;;;;;;;;15.18;52.89;99516.09;5077077;28;20393;-77
2023/11/14 11:31:16;;;;;;;;;;;;;;;15.19;52.15;99507.09;5084874;28;19916;-77
2023/11/14 11:33:44;;;;;;;;;;;;;;;15.22;52.77;99500.53;5070895;28;19941;-78
2023/11/14 11:36:23;;;;;;;;;;;;;;;15.24;53.17;99501.16;5075348;28;19956;-77
2023/11/14 11:38:52;;;;;;;;;;;;;;;15.24;52.64;99493.16;5074650;28;20377;-78
2023/11/14 11:41:18;;;;;;;;;;;;;;;15.26;52.96;99489.28;5074484;28;19913;-77
2023/11/14 11:43:44;;;;;;;;;;;;;;;15.27;53.19;99485.59;5074456;28;19926;-77
2023/11/14 11:46:29;;;;;;;;;;;;;;;15.26;53.24;99480.47;5074426;28;19912;-74
2023/11/14 11:48:54;;;;;;;;;;;;;;;15.26;53.39;99472.50;5074359;28;19966;-77
2023/11/14 11:51:21;;;;;;;;;;;;;;;15.26;53.16;99464.53;5074277;28;19912;-78
2023/11/14 11:53:49;;;;;;;;;;;;;;;15.26;53.35;99453.88;5075328;28;19919;-77
2023/11/14 11:56:33;;;;;;;;;;;;;;;15.26;53.84;99449.38;5073056;28;19918;-77
2023/11/14 11:58:58;;;;;;;;;;;;;;;15.30;53.86;99446.28;5094725;28;19912;-76
2023/11/14 12:01:23;;;;;;;;;;;;;;;15.31;53.87;99450.59;5075847;28;19916;-78
2023/11/14 12:03:49;;;;;;;;;;;;;;;15.33;53.70;99444.03;5089778;28;19920;-77
2023/11/14 12:06:15;;;;;;;;;;;;;;;15.35;54.02;99441.16;5067737;28;19913;-77
2023/11/14 12:08:40;;;;;;;;;;;;;;;15.38;53.72;99435.41;5073994;28;19969;-78
2023/11/14 12:11:08;;;;;;;;;;;;;;;15.37;54.10;99431.13;5074029;28;19916;-77
2023/11/14 12:13:33;;;;;;;;;;;;;;;15.39;53.98;99421.09;5065302;28;19916;-78
2023/11/14 12:15:58;;;;;;;;;;;;;;;15.40;54.54;99431.50;5079674;28;19916;-77
2023/11/14 12:18:24;;;;;;;;;;;;;;;15.42;54.59;99426.78;5086461;28;19973;-77
2023/11/14 12:20:50;;;;;;;;;;;;;;;15.47;54.18;99420.84;5079564;28;20013;-78
2023/11/14 12:23:15;;;;;;;;;;;;;;;15.48;54.55;99422.47;5076823;28;20316;-75
2023/11/14 12:25:41;;;;;;;;;;;;;;;15.54;54.04;99410.97;5077153;28;19936;-75
2023/11/14 12:28:06;;;;;;;;;;;;;;;15.58;53.88;99406.88;5073650;28;19923;-77
2023/11/14 12:30:33;;;;;;;;;;;;;;;15.60;54.42;99404.00;5074659;28;20290;-78
2023/11/14 12:33:02;;;;;;;;;;;;;;;15.63;54.80;99411.59;5089766;28;19970;-78
2023/11/14 12:35:27;;;;;;;;;;;;;;;15.68;54.41;99401.94;5070515;28;19916;-77
2023/11/14 12:38:00;;;;;;;;;;;;;;;15.69;55.06;99400.09;5087331;28;19973;-77
2023/11/14 12:40:25;;;;;;;;;;;;;;;15.72;55.00;99392.50;5077407;28;20363;-78
2023/11/14 12:42:50;;;;;;;;;;;;;;;15.75;55.50;99400.06;5092562;28;19916;-76
2023/11/14 12:45:16;;;;;;;;;;;;;;;15.77;55.85;99397.19;5077170;28;19963;-76
2023/11/14 12:47:41;;;;;;;;;;;;;;;15.80;55.90;99408.22;5093314;28;19916;-76